sensor_id;sensor_type;location;lat;lon;timestamp;temperature;humidity
21282;DHT22;10800;53.096;18.328;2022-10-17T00:02:41;9.10;99.90
21282;DHT22;10800;53.096;18.328;2022-10-17T00:07:46;8.90;99.90
21282;DHT22;10800;53.096;18.328;2022-10-17T00:12:52;8.90;99.90
21282;DHT22;10800;53.096;18.328;2022-10-17T00:17:57;8.80;99.90
21282;DHT22;10800;53.096;18.328;2022-10-17T00:23:03;8.80;99.90
21282;DHT22;10800;53.096;18.328;2022-10-17T00:28:15;8.90;99.90
21282;DHT22;10800;53.096;18.328;2022-10-17T00:33:18;8.90;99.90
21282;DHT22;10800;53.096;18.328;2022-10-17T00:38:25;8.80;99.90
21282;DHT22;10800;53.096;18.328;2022-10-17T00:43:48;8.80;99.90
21282;DHT22;10800;53.096;18.328;2022-10-17T00:48:56;8.80;99.90
21282;DHT22;10800;53.096;18.328;2022-10-17T00:54:02;8.80;99.90
21282;DHT22;10800;53.096;18.328;2022-10-17T00:59:09;8.90;99.90
21282;DHT22;10800;53.096;18.328;2022-10-17T01:04:17;9.00;99.90
21282;DHT22;10800;53.096;18.328;2022-10-17T01:09:24;9.10;99.90
21282;DHT22;10800;53.096;18.328;2022-10-17T01:14:39;9.10;99.90
21282;DHT22;10800;53.096;18.328;2022-10-17T01:25:28;9.40;99.90
21282;DHT22;10800;53.096;18.328;2022-10-17T01:30:57;9.50;99.90
21282;DHT22;10800;53.096;18.328;2022-10-17T01:36:22;9.60;99.90
21282;DHT22;10800;53.096;18.328;2022-10-17T01:41:28;9.60;99.90
21282;DHT22;10800;53.096;18.328;2022-10-17T01:46:40;9.70;99.90
21282;DHT22;10800;53.096;18.328;2022-10-17T01:52:00;9.80;99.90
21282;DHT22;10800;53.096;18.328;2022-10-17T01:57:00;9.90;99.90
21282;DHT22;10800;53.096;18.328;2022-10-17T02:02:07;9.90;99.90
21282;DHT22;10800;53.096;18.328;2022-10-17T02:07:15;10.00;99.90
21282;DHT22;10800;53.096;18.328;2022-10-17T02:18:18;10.10;99.90
21282;DHT22;10800;53.096;18.328;2022-10-17T02:23:45;10.10;99.90
21282;DHT22;10800;53.096;18.328;2022-10-17T02:34:25;10.20;99.90
21282;DHT22;10800;53.096;18.328;2022-10-17T02:39:29;10.30;99.90
21282;DHT22;10800;53.096;18.328;2022-10-17T02:44:38;10.30;99.90
21282;DHT22;10800;53.096;18.328;2022-10-17T02:49:48;10.30;99.90
21282;DHT22;10800;53.096;18.328;2022-10-17T02:54:56;10.30;99.90
21282;DHT22;10800;53.096;18.328;2022-10-17T03:00:03;10.30;99.90
21282;DHT22;10800;53.096;18.328;2022-10-17T03:05:10;10.40;99.90
21282;DHT22;10800;53.096;18.328;2022-10-17T03:10:17;10.40;99.90
21282;DHT22;10800;53.096;18.328;2022-10-17T03:15:23;10.50;99.90
21282;DHT22;10800;53.096;18.328;2022-10-17T03:20:29;10.50;99.90
21282;DHT22;10800;53.096;18.328;2022-10-17T03:25:34;10.50;99.90
21282;DHT22;10800;53.096;18.328;2022-10-17T03:30:39;10.60;99.90
21282;DHT22;10800;53.096;18.328;2022-10-17T03:35:44;10.60;99.90
21282;DHT22;10800;53.096;18.328;2022-10-17T03:40:56;10.60;99.90
21282;DHT22;10800;53.096;18.328;2022-10-17T03:46:03;10.70;99.90
21282;DHT22;10800;53.096;18.328;2022-10-17T03:51:09;10.70;99.90
21282;DHT22;10800;53.096;18.328;2022-10-17T03:56:17;10.70;99.90
21282;DHT22;10800;53.096;18.328;2022-10-17T04:01:23;10.80;99.90
21282;DHT22;10800;53.096;18.328;2022-10-17T04:06:30;10.80;99.90
21282;DHT22;10800;53.096;18.328;2022-10-17T04:11:36;10.90;99.90
21282;DHT22;10800;53.096;18.328;2022-10-17T04:16:41;10.90;99.90
21282;DHT22;10800;53.096;18.328;2022-10-17T04:21:46;10.90;99.90
21282;DHT22;10800;53.096;18.328;2022-10-17T04:26:53;10.90;99.90
21282;DHT22;10800;53.096;18.328;2022-10-17T04:32:02;10.90;99.90
21282;DHT22;10800;53.096;18.328;2022-10-17T04:37:07;10.90;99.90
21282;DHT22;10800;53.096;18.328;2022-10-17T04:42:14;10.80;99.90
21282;DHT22;10800;53.096;18.328;2022-10-17T04:47:22;10.80;99.90
21282;DHT22;10800;53.096;18.328;2022-10-17T04:52:28;10.90;99.90
21282;DHT22;10800;53.096;18.328;2022-10-17T04:57:37;10.90;99.90
21282;DHT22;10800;53.096;18.328;2022-10-17T05:02:43;10.90;99.90
21282;DHT22;10800;53.096;18.328;2022-10-17T05:07:49;11.00;99.90
21282;DHT22;10800;53.096;18.328;2022-10-17T05:12:55;11.00;99.90
21282;DHT22;10800;53.096;18.328;2022-10-17T05:18:04;11.00;99.90
21282;DHT22;10800;53.096;18.328;2022-10-17T05:23:11;11.10;99.90
21282;DHT22;10800;53.096;18.328;2022-10-17T05:28:16;11.10;99.90
21282;DHT22;10800;53.096;18.328;2022-10-17T05:33:22;11.10;99.90
21282;DHT22;10800;53.096;18.328;2022-10-17T05:38:28;11.00;99.90
21282;DHT22;10800;53.096;18.328;2022-10-17T05:43:35;11.10;99.90
21282;DHT22;10800;53.096;18.328;2022-10-17T05:48:41;11.20;99.90
21282;DHT22;10800;53.096;18.328;2022-10-17T05:53:46;11.10;99.90
21282;DHT22;10800;53.096;18.328;2022-10-17T05:58:54;11.20;99.90
21282;DHT22;10800;53.096;18.328;2022-10-17T06:04:02;11.10;99.90
21282;DHT22;10800;53.096;18.328;2022-10-17T06:09:07;11.20;99.90
21282;DHT22;10800;53.096;18.328;2022-10-17T06:14:14;11.20;99.90
21282;DHT22;10800;53.096;18.328;2022-10-17T06:19:20;11.30;99.90
21282;DHT22;10800;53.096;18.328;2022-10-17T06:24:25;11.40;99.90
21282;DHT22;10800;53.096;18.328;2022-10-17T06:29:49;11.60;99.90
21282;DHT22;10800;53.096;18.328;2022-10-17T06:34:57;11.80;99.90
21282;DHT22;10800;53.096;18.328;2022-10-17T06:40:05;11.90;99.90
21282;DHT22;10800;53.096;18.328;2022-10-17T06:45:31;12.20;99.90
21282;DHT22;10800;53.096;18.328;2022-10-17T06:50:36;12.40;99.90
21282;DHT22;10800;53.096;18.328;2022-10-17T06:55:44;12.70;99.90
21282;DHT22;10800;53.096;18.328;2022-10-17T07:00:49;12.90;99.90
21282;DHT22;10800;53.096;18.328;2022-10-17T07:05:56;13.20;99.90
21282;DHT22;10800;53.096;18.328;2022-10-17T07:11:09;13.50;99.90
21282;DHT22;10800;53.096;18.328;2022-10-17T07:16:16;13.90;99.90
21282;DHT22;10800;53.096;18.328;2022-10-17T07:21:29;14.30;99.90
21282;DHT22;10800;53.096;18.328;2022-10-17T07:26:41;14.60;99.90
21282;DHT22;10800;53.096;18.328;2022-10-17T07:31:51;14.80;99.90
21282;DHT22;10800;53.096;18.328;2022-10-17T07:37:07;14.80;99.90
21282;DHT22;10800;53.096;18.328;2022-10-17T07:42:15;14.50;99.90
21282;DHT22;10800;53.096;18.328;2022-10-17T07:47:25;14.50;99.90
21282;DHT22;10800;53.096;18.328;2022-10-17T07:52:37;14.60;99.90
21282;DHT22;10800;53.096;18.328;2022-10-17T07:57:52;14.70;99.90
21282;DHT22;10800;53.096;18.328;2022-10-17T08:03:03;14.90;99.90
21282;DHT22;10800;53.096;18.328;2022-10-17T08:08:14;15.50;99.90
21282;DHT22;10800;53.096;18.328;2022-10-17T08:13:21;15.90;99.90
21282;DHT22;10800;53.096;18.328;2022-10-17T08:18:28;16.10;99.90
21282;DHT22;10800;53.096;18.328;2022-10-17T08:23:35;16.30;99.90
21282;DHT22;10800;53.096;18.328;2022-10-17T08:28:41;16.60;99.90
21282;DHT22;10800;53.096;18.328;2022-10-17T08:33:48;17.10;99.90
21282;DHT22;10800;53.096;18.328;2022-10-17T08:39:00;17.40;99.90
21282;DHT22;10800;53.096;18.328;2022-10-17T08:44:28;17.80;99.90
21282;DHT22;10800;53.096;18.328;2022-10-17T08:49:52;17.70;99.90
21282;DHT22;10800;53.096;18.328;2022-10-17T08:55:00;17.50;99.90
21282;DHT22;10800;53.096;18.328;2022-10-17T09:00:26;17.80;99.90
21282;DHT22;10800;53.096;18.328;2022-10-17T09:05:37;18.30;99.90
21282;DHT22;10800;53.096;18.328;2022-10-17T09:11:08;18.80;99.90
21282;DHT22;10800;53.096;18.328;2022-10-17T09:26:50;19.90;99.90
21282;DHT22;10800;53.096;18.328;2022-10-17T09:32:36;20.10;99.90
21282;DHT22;10800;53.096;18.328;2022-10-17T09:37:46;20.20;99.90
21282;DHT22;10800;53.096;18.328;2022-10-17T09:42:57;20.40;99.90
21282;DHT22;10800;53.096;18.328;2022-10-17T09:53:33;20.60;99.90
21282;DHT22;10800;53.096;18.328;2022-10-17T09:58:41;20.90;99.90
21282;DHT22;10800;53.096;18.328;2022-10-17T10:04:11;21.10;99.90
21282;DHT22;10800;53.096;18.328;2022-10-17T10:09:20;21.00;99.90
21282;DHT22;10800;53.096;18.328;2022-10-17T10:14:35;21.30;99.90
21282;DHT22;10800;53.096;18.328;2022-10-17T10:20:27;21.60;99.90
21282;DHT22;10800;53.096;18.328;2022-10-17T10:25:35;21.70;99.90
21282;DHT22;10800;53.096;18.328;2022-10-17T10:30:48;21.70;99.90
21282;DHT22;10800;53.096;18.328;2022-10-17T10:36:05;22.00;99.90
21282;DHT22;10800;53.096;18.328;2022-10-17T10:41:21;22.30;99.90
21282;DHT22;10800;53.096;18.328;2022-10-17T10:47:17;22.50;99.90
21282;DHT22;10800;53.096;18.328;2022-10-17T10:52:43;22.40;99.90
21282;DHT22;10800;53.096;18.328;2022-10-17T10:57:51;22.50;99.90
21282;DHT22;10800;53.096;18.328;2022-10-17T11:08:34;22.40;99.90
21282;DHT22;10800;53.096;18.328;2022-10-17T11:13:47;22.70;99.90
21282;DHT22;10800;53.096;18.328;2022-10-17T11:19:26;22.70;99.90
21282;DHT22;10800;53.096;18.328;2022-10-17T11:25:00;23.00;99.90
21282;DHT22;10800;53.096;18.328;2022-10-17T11:30:41;23.10;99.90
21282;DHT22;10800;53.096;18.328;2022-10-17T11:35:45;23.10;99.90
21282;DHT22;10800;53.096;18.328;2022-10-17T11:41:10;23.10;99.90
21282;DHT22;10800;53.096;18.328;2022-10-17T11:46:41;23.00;99.90
21282;DHT22;10800;53.096;18.328;2022-10-17T11:51:53;23.00;99.90
21282;DHT22;10800;53.096;18.328;2022-10-17T12:03:12;22.80;99.90
21282;DHT22;10800;53.096;18.328;2022-10-17T12:08:56;22.70;99.90
21282;DHT22;10800;53.096;18.328;2022-10-17T12:14:02;22.60;99.90
21282;DHT22;10800;53.096;18.328;2022-10-17T12:19:34;22.80;99.90
21282;DHT22;10800;53.096;18.328;2022-10-17T12:24:56;22.80;99.90
21282;DHT22;10800;53.096;18.328;2022-10-17T12:35:26;22.60;99.90
21282;DHT22;10800;53.096;18.328;2022-10-17T12:40:57;22.50;99.90
21282;DHT22;10800;53.096;18.328;2022-10-17T13:02:31;22.40;99.90
21282;DHT22;10800;53.096;18.328;2022-10-17T13:07:43;22.20;99.90
21282;DHT22;10800;53.096;18.328;2022-10-17T13:13:34;22.20;99.90
21282;DHT22;10800;53.096;18.328;2022-10-17T13:18:37;22.10;99.90
21282;DHT22;10800;53.096;18.328;2022-10-17T13:23:51;22.10;99.90
21282;DHT22;10800;53.096;18.328;2022-10-17T13:29:04;22.10;99.90
21282;DHT22;10800;53.096;18.328;2022-10-17T13:34:21;22.20;99.90
21282;DHT22;10800;53.096;18.328;2022-10-17T13:39:26;22.30;99.90
21282;DHT22;10800;53.096;18.328;2022-10-17T13:44:33;22.30;99.90
21282;DHT22;10800;53.096;18.328;2022-10-17T13:49:41;22.20;99.90
21282;DHT22;10800;53.096;18.328;2022-10-17T13:54:49;22.20;99.90
21282;DHT22;10800;53.096;18.328;2022-10-17T13:59:57;22.10;99.90
21282;DHT22;10800;53.096;18.328;2022-10-17T14:10:24;21.90;99.90
21282;DHT22;10800;53.096;18.328;2022-10-17T14:15:32;21.80;99.90
21282;DHT22;10800;53.096;18.328;2022-10-17T14:20:39;21.80;99.90
21282;DHT22;10800;53.096;18.328;2022-10-17T14:26:02;21.70;99.90
21282;DHT22;10800;53.096;18.328;2022-10-17T14:36:44;21.50;99.90
21282;DHT22;10800;53.096;18.328;2022-10-17T14:42:20;21.30;99.90
21282;DHT22;10800;53.096;18.328;2022-10-17T14:47:35;21.10;99.90
21282;DHT22;10800;53.096;18.328;2022-10-17T14:53:16;21.00;99.90
21282;DHT22;10800;53.096;18.328;2022-10-17T14:58:17;20.80;99.90
21282;DHT22;10800;53.096;18.328;2022-10-17T15:03:28;20.60;99.90
21282;DHT22;10800;53.096;18.328;2022-10-17T15:08:35;20.40;99.90
21282;DHT22;10800;53.096;18.328;2022-10-17T15:13:44;20.20;99.90
21282;DHT22;10800;53.096;18.328;2022-10-17T15:19:13;20.10;99.90
21282;DHT22;10800;53.096;18.328;2022-10-17T15:24:20;19.90;99.90
21282;DHT22;10800;53.096;18.328;2022-10-17T15:29:30;19.70;99.90
21282;DHT22;10800;53.096;18.328;2022-10-17T15:34:35;19.60;99.90
21282;DHT22;10800;53.096;18.328;2022-10-17T15:39:41;19.40;99.90
21282;DHT22;10800;53.096;18.328;2022-10-17T15:44:47;19.10;99.90
21282;DHT22;10800;53.096;18.328;2022-10-17T15:49:56;18.80;99.90
21282;DHT22;10800;53.096;18.328;2022-10-17T15:55:33;18.60;99.90
21282;DHT22;10800;53.096;18.328;2022-10-17T16:00:39;18.50;99.90
21282;DHT22;10800;53.096;18.328;2022-10-17T16:06:07;18.30;99.90
21282;DHT22;10800;53.096;18.328;2022-10-17T16:11:41;18.20;99.90
21282;DHT22;10800;53.096;18.328;2022-10-17T16:17:03;18.00;99.90
21282;DHT22;10800;53.096;18.328;2022-10-17T16:22:37;17.90;99.90
21282;DHT22;10800;53.096;18.328;2022-10-17T16:27:40;17.80;99.90
21282;DHT22;10800;53.096;18.328;2022-10-17T16:32:53;17.80;99.90
21282;DHT22;10800;53.096;18.328;2022-10-17T16:38:02;17.70;99.90
21282;DHT22;10800;53.096;18.328;2022-10-17T16:43:12;17.60;99.90
21282;DHT22;10800;53.096;18.328;2022-10-17T16:48:40;17.60;99.90
21282;DHT22;10800;53.096;18.328;2022-10-17T16:53:48;17.50;99.90
21282;DHT22;10800;53.096;18.328;2022-10-17T16:58:57;17.40;99.90
21282;DHT22;10800;53.096;18.328;2022-10-17T17:04:12;17.30;99.90
21282;DHT22;10800;53.096;18.328;2022-10-17T17:09:27;17.30;99.90
21282;DHT22;10800;53.096;18.328;2022-10-17T17:14:37;17.30;99.90
21282;DHT22;10800;53.096;18.328;2022-10-17T17:19:49;17.20;99.90
21282;DHT22;10800;53.096;18.328;2022-10-17T17:24:57;17.00;99.90
21282;DHT22;10800;53.096;18.328;2022-10-17T17:30:05;16.90;99.90
21282;DHT22;10800;53.096;18.328;2022-10-17T17:35:13;16.70;99.90
21282;DHT22;10800;53.096;18.328;2022-10-17T17:40:21;16.50;99.90
21282;DHT22;10800;53.096;18.328;2022-10-17T17:45:29;16.40;99.90
21282;DHT22;10800;53.096;18.328;2022-10-17T17:50:40;16.30;99.90
21282;DHT22;10800;53.096;18.328;2022-10-17T17:55:46;16.20;99.90
21282;DHT22;10800;53.096;18.328;2022-10-17T18:00:53;16.00;99.90
21282;DHT22;10800;53.096;18.328;2022-10-17T18:06:20;15.90;99.90
21282;DHT22;10800;53.096;18.328;2022-10-17T18:11:26;15.90;99.90
21282;DHT22;10800;53.096;18.328;2022-10-17T18:16:34;15.90;99.90
21282;DHT22;10800;53.096;18.328;2022-10-17T18:21:42;16.00;99.90
21282;DHT22;10800;53.096;18.328;2022-10-17T18:26:49;15.90;99.90
21282;DHT22;10800;53.096;18.328;2022-10-17T18:31:57;15.80;99.90
21282;DHT22;10800;53.096;18.328;2022-10-17T18:37:02;15.70;99.90
21282;DHT22;10800;53.096;18.328;2022-10-17T18:42:08;15.60;99.90
21282;DHT22;10800;53.096;18.328;2022-10-17T18:47:18;15.50;99.90
21282;DHT22;10800;53.096;18.328;2022-10-17T18:52:23;15.50;99.90
21282;DHT22;10800;53.096;18.328;2022-10-17T18:57:30;15.50;99.90
21282;DHT22;10800;53.096;18.328;2022-10-17T19:02:36;15.50;99.90
21282;DHT22;10800;53.096;18.328;2022-10-17T19:07:46;15.40;99.90
21282;DHT22;10800;53.096;18.328;2022-10-17T19:12:56;15.30;99.90
21282;DHT22;10800;53.096;18.328;2022-10-17T19:18:05;15.20;99.90
21282;DHT22;10800;53.096;18.328;2022-10-17T19:23:10;15.10;99.90
21282;DHT22;10800;53.096;18.328;2022-10-17T19:28:23;14.90;99.90
21282;DHT22;10800;53.096;18.328;2022-10-17T19:33:31;14.70;99.90
21282;DHT22;10800;53.096;18.328;2022-10-17T19:38:41;14.60;99.90
21282;DHT22;10800;53.096;18.328;2022-10-17T19:43:50;14.40;99.90
21282;DHT22;10800;53.096;18.328;2022-10-17T19:49:00;14.30;99.90
21282;DHT22;10800;53.096;18.328;2022-10-17T19:54:05;14.20;99.90
21282;DHT22;10800;53.096;18.328;2022-10-17T19:59:30;14.10;99.90
21282;DHT22;10800;53.096;18.328;2022-10-17T20:04:44;14.10;99.90
21282;DHT22;10800;53.096;18.328;2022-10-17T20:09:56;14.10;99.90
21282;DHT22;10800;53.096;18.328;2022-10-17T20:15:04;14.00;99.90
21282;DHT22;10800;53.096;18.328;2022-10-17T20:20:09;14.00;99.90
21282;DHT22;10800;53.096;18.328;2022-10-17T20:25:19;13.90;99.90
21282;DHT22;10800;53.096;18.328;2022-10-17T20:30:29;13.80;99.90
21282;DHT22;10800;53.096;18.328;2022-10-17T20:35:41;13.70;99.90
21282;DHT22;10800;53.096;18.328;2022-10-17T20:40:47;13.70;99.90
21282;DHT22;10800;53.096;18.328;2022-10-17T20:45:54;13.70;99.90
21282;DHT22;10800;53.096;18.328;2022-10-17T20:51:09;13.90;99.90
21282;DHT22;10800;53.096;18.328;2022-10-17T20:56:20;13.90;99.90
21282;DHT22;10800;53.096;18.328;2022-10-17T21:01:28;14.00;99.90
21282;DHT22;10800;53.096;18.328;2022-10-17T21:06:58;13.90;99.90
21282;DHT22;10800;53.096;18.328;2022-10-17T21:12:04;13.80;99.90
21282;DHT22;10800;53.096;18.328;2022-10-17T21:17:10;13.70;99.90
21282;DHT22;10800;53.096;18.328;2022-10-17T21:22:16;13.70;99.90
21282;DHT22;10800;53.096;18.328;2022-10-17T21:27:40;13.60;99.90
21282;DHT22;10800;53.096;18.328;2022-10-17T21:32:46;13.60;99.90
21282;DHT22;10800;53.096;18.328;2022-10-17T21:37:57;13.40;99.90
21282;DHT22;10800;53.096;18.328;2022-10-17T21:43:02;13.30;99.90
21282;DHT22;10800;53.096;18.328;2022-10-17T21:48:13;13.30;99.90
21282;DHT22;10800;53.096;18.328;2022-10-17T21:53:20;13.20;99.90
21282;DHT22;10800;53.096;18.328;2022-10-17T21:58:27;13.20;99.90
21282;DHT22;10800;53.096;18.328;2022-10-17T22:03:38;13.10;99.90
21282;DHT22;10800;53.096;18.328;2022-10-17T22:08:51;13.10;99.90
21282;DHT22;10800;53.096;18.328;2022-10-17T22:14:05;13.00;99.90
21282;DHT22;10800;53.096;18.328;2022-10-17T22:19:33;12.90;99.90
21282;DHT22;10800;53.096;18.328;2022-10-17T22:24:45;12.80;99.90
21282;DHT22;10800;53.096;18.328;2022-10-17T22:29:50;12.70;99.90
21282;DHT22;10800;53.096;18.328;2022-10-17T22:34:56;12.60;99.90
21282;DHT22;10800;53.096;18.328;2022-10-17T22:40:03;12.60;99.90
21282;DHT22;10800;53.096;18.328;2022-10-17T22:45:12;12.50;99.90
21282;DHT22;10800;53.096;18.328;2022-10-17T22:50:17;12.50;99.90
21282;DHT22;10800;53.096;18.328;2022-10-17T22:55:26;12.40;99.90
21282;DHT22;10800;53.096;18.328;2022-10-17T23:00:32;12.50;99.90
21282;DHT22;10800;53.096;18.328;2022-10-17T23:05:38;12.40;99.90
21282;DHT22;10800;53.096;18.328;2022-10-17T23:11:03;12.30;99.90
21282;DHT22;10800;53.096;18.328;2022-10-17T23:16:08;12.20;99.90
21282;DHT22;10800;53.096;18.328;2022-10-17T23:21:15;12.30;99.90
21282;DHT22;10800;53.096;18.328;2022-10-17T23:26:20;12.20;99.90
21282;DHT22;10800;53.096;18.328;2022-10-17T23:31:25;12.10;99.90
21282;DHT22;10800;53.096;18.328;2022-10-17T23:36:35;12.10;99.90
21282;DHT22;10800;53.096;18.328;2022-10-17T23:41:42;12.00;99.90
21282;DHT22;10800;53.096;18.328;2022-10-17T23:46:53;12.00;99.90
21282;DHT22;10800;53.096;18.328;2022-10-17T23:52:00;12.00;99.90
21282;DHT22;10800;53.096;18.328;2022-10-17T23:57:07;11.90;99.90
